Terminal Aerodrome Forecast
Issued by NWS

Home | Current Version | Previous Version | Text Only | Print | Product List | Glossary On
Versions: 1 2 3 4 5 6 7 8 9 10 11 12 13 14 15 16 17 18 19 20 21 22
809
FTUS41 KBGM 271122
TAFRME
TAF
KRME 271122Z 2712/2812 13005KT P6SM BKN040
      TEMPO 2712/2714 BKN016
     FM271400 13010G20KT P6SM SCT040 SCT200
     FM280200 12010KT P6SM BKN040 BKN200
      TEMPO 2803/2806 5SM TSRA BR BKN025CB
     FM280600 12008KT 5SM -SHRA BR BKN028
     FM280900 27008KT P6SM BKN040=

USA.gov is the U.S. government's official web portal to all federal, state and local government web resources and services.